Tiempo atmosférico en la estación meteorológica de Cuéllar, Segovia (795 m.)

Fecha
DESCASC
Temp. máxima en grados centígrados (hora)
DESCASC
Temp. mínima en grados centígrados (hora)
DESCASC
Temp. media en grados centígrados
DESCASC
Racha de viento máxima en m/sg (hora)
DESCASC
Velocidad máxima media en intervalos de 10 minutos(hora)
DESCASC
Precipitaciones diarias en mm
DESCASC
Precipitaciones de 00:00 a 06:00 en mm
DESCASC
Precipitaciones de 06:00 a 12:00 en mm
DESCASC
Precipitaciones de 12:00 a 18:00 en mm
DESCASC
Precipitaciones de 18:00 a 24:00 en mm
DESCASC
17-09-2017 21.4 (18:10) -2.6 (08:00) 9.4 8.33 (16:50) 4.44 (14:50) 0 0 0 0 0
16-09-2017 18.8 (18:00) 0.6 (08:20) 9.7 7.5 (00:20) 5.28 (00:40) 0 0 0 0 0
15-09-2017 19.8 (16:40) 7.6 (07:10) 13.7 11.11 (01:30) 8.61 (10:40) 0 0 0 0 0
14-09-2017 26.4 (16:00) 4.4 (00:00) 15.4 11.39 (23:40) 8.89 (23:00) 0 0 0 0 0
13-09-2017 29.5 (18:10) 4.9 (00:00) 17.2 8.06 (14:50) 4.72 (16:30) 0 0 0 0 0
12-09-2017 24.7 (17:50) 8.2 (00:00) 16.5 8.33 (15:20) 4.17 (15:00) 0 0 0 0 0
11-09-2017 26.7 (18:40) 5 (00:00) 15.9 12.22 (17:40) 6.39 (15:40) 0 0 0 0 0
10-09-2017 22.4 (18:40) 2 (00:00) 12.2 8.33 (18:20) 4.72 (18:10) 0 0 0 0 0
09-09-2017 21.7 (16:40) 6.1 (00:00) 13.9 13.61 (17:10) 8.33 (18:20) 0 0 0 0 0
08-09-2017 28.9 (18:20) 3.5 (00:00) 16.2 8.61 (16:20) 5 (14:50) 0 0 0 0 0
07-09-2017 29 (17:30) 2.9 (00:00) 16 6.39 (16:00) 3.89 (16:00) 0 0 0 0 0
06-09-2017 30.7 (16:50) 13.1 (00:00) 21.9 12.22 (19:30) 9.17 (19:50) 0 0 0 0 0
05-09-2017 32.7 (17:50) 8.1 (00:00) 20.4 5.83 (15:40) 3.89 (22:20) 0 0 0 0 0
04-09-2017 29.2 (17:10) 10.5 (00:00) 19.9 6.11 (11:30) 2.78 (10:30) 0 0 0 0 0
03-09-2017 30.4 (16:50) 7.9 (00:00) 19.1 8.89 (18:40) 4.72 (18:40) 0 0 0 0 0
02-09-2017 27 (18:20) 6 (00:00) 16.5 9.17 (02:00) 7.5 (02:20) 0 0 0 0 0
01-09-2017 24.8 (17:30) 10.4 (00:00) 17.6 10 (23:10) 7.5 (23:00) 0 0 0 0 0
31-08-2017 26.1 (18:40) 11.9 (00:00) 19 6.94 (04:30) 5.28 (05:00) 0 0 0 0 0
30-08-2017 26.1 (18:30) 9.6 (00:00) 17.9 10.28 (22:00) 6.94 (22:20) 5.2 0 0 0 5.2
29-08-2017 27 (17:20) 9 (00:00) 18 7.5 (21:20) 5 (21:00) 13.4 0 0 0 13.4
28-08-2017 19.5 (12:20) 13.8 (00:00) 16.7 14.17 (04:00) 9.17 (04:00) 13.8 0.4 2.2 9.6 1.6
27-08-2017 25 (16:20) 13.3 (00:00) 19.2 15.28 (19:50) 9.17 (10:40) 10 0 2.4 3 4.6
26-08-2017 30.7 (15:10) 6.8 (00:00) 18.8 11.94 (17:40) 7.5 (18:30) 0 0 0 0 0
25-08-2017 32.8 (16:10) 6.1 (00:00) 19.4 9.17 (16:20) 5 (15:00) 0 0 0 0 0
24-08-2017 33.3 (16:20) 9.6 (00:00) 21.4 11.39 (15:00) 6.39 (13:10) 0 0 0 0 0
23-08-2017 36.4 (17:30) 10 (00:00) 23.2 6.94 (15:40) 3.89 (00:10) 0 0 0 0 0
22-08-2017 35.7 (17:10) 13.8 (00:00) 24.8 11.11 (16:50) 5.28 (15:40) 0 0 0 0 0

Gráficas

Temp. máximas Temp. mínimas Temp. medias Precipitaciones Rachas de viento máximas Velocidades máximas media en intervalos de 10 minutos

Datos horarios

Fecha y hora oficial Temperatura (ºC) Velocidad del viento (km/h) Dirección del viento Racha (km/h) Dirección de racha Precipitación (mm) Presión (hPa) Tendencia (hPa) Humedad (%)
2017-09-20 23:00:00 9.1 4 Este 8 Este 0 -- -- 58
2017-09-20 22:00:00 14.3 4 Sudeste 14 Norte 0 -- -- 42
2017-09-20 21:00:00 15 3 Oeste 7 Oeste 0 -- -- 40
2017-09-20 20:00:00 23.6 4 Noroeste 11 Noroeste 0 -- -- 25
2017-09-20 19:00:00 27 7 Oeste 19 Oeste 0 -- -- 19
2017-09-20 18:00:00 27.9 7 Noroeste 18 Sudoeste 0 -- -- 19
2017-09-20 17:00:00 27.5 10 Oeste 19 Oeste 0 -- -- 19
2017-09-20 16:00:00 27.4 10 Noroeste 19 Noroeste 0 -- -- 22
2017-09-20 15:00:00 27 5 Oeste 16 Noroeste 0 -- -- 23
2017-09-20 14:00:00 25.4 5 Oeste 22 Este 0 -- -- 24
2017-09-20 13:00:00 24.8 5 Este 13 Este 0 -- -- 27
2017-09-20 12:00:00 22.2 3 Este 8 Este 0 -- -- 32
2017-09-20 11:00:00 18.3 2 Este 8 Este 0 -- -- 39
2017-09-20 10:00:00 12.5 5 Este 8 Este 0 -- -- 51
2017-09-20 09:00:00 4.3 4 Este 6 Sudeste 0 -- -- 79
2017-09-20 08:00:00 0.2 5 Sudeste 8 Sudeste 0 -- -- 87
2017-09-20 07:00:00 0.1 0 Calma 6 Sudeste 0 -- -- 87
2017-09-20 06:00:00 1.5 8 Sudeste 10 Sudeste 0 -- -- 84
2017-09-20 05:00:00 1.1 5 Sudeste 6 Sudeste 0 -- -- 84
2017-09-20 04:00:00 2.5 4 Este 11 Este 0 -- -- 81
2017-09-20 03:00:00 3.2 8 Este 11 Este 0 -- -- 78
2017-09-20 02:00:00 3.3 8 Este 11 Este 0 -- -- 78
2017-09-20 01:00:00 7.6 6 Nordeste 8 Nordeste 0 -- -- 62
2017-09-20 00:00:00 8.4 4 Este 9 Este 0 -- -- 58
2017-09-19 23:00:00 9.9 8 Este 16 Nordeste 0 -- -- 54
2017-09-19 22:00:00 13.8 7 Este 15 Nordeste 0 -- -- 44
2017-09-19 21:00:00 14.7 9 Nordeste 13 Nordeste 0 -- -- 41
2017-09-19 20:00:00 20.5 8 Nordeste 18 Norte 0 -- -- 31
2017-09-19 19:00:00 23.7 10 Nordeste 22 Nordeste 0 -- -- 28
2017-09-19 18:00:00 24.5 8 Nordeste 20 Norte 0 -- -- 30
2017-09-19 17:00:00 24.6 6 Norte 17 Norte 0 -- -- 27
2017-09-19 16:00:00 23 6 Este 18 Este 0 -- -- 35
2017-09-19 15:00:00 22.2 6 Norte 16 Nordeste 0 -- -- 39
2017-09-19 14:00:00 21.1 7 Norte 19 Norte 0 -- -- 42
2017-09-19 13:00:00 19.3 8 Noroeste 19 Este 0 -- -- 45
2017-09-19 12:00:00 18.7 5 Nordeste 13 Este 0 -- -- 50
2017-09-19 11:00:00 15.7 7 Este 14 Este 0 -- -- 60
2017-09-19 10:00:00 11.7 4 Este 6 Este 0 -- -- 77
2017-09-19 09:00:00 5.3 0 Calma 2 Este 0 -- -- 93
2017-09-19 08:00:00 2.3 3 Sudeste 5 Este 0 -- -- 97
2017-09-19 07:00:00 2.2 4 Sudeste 14 Este 0 -- -- 93
2017-09-19 06:00:00 5.4 3 Este 6 Nordeste 0 -- -- 95
2017-09-19 05:00:00 3.4 5 Este 9 Este 0 -- -- 94
2017-09-19 04:00:00 5.5 0 Calma 14 Nordeste 0 -- -- 92
2017-09-19 03:00:00 9.3 5 Este 13 Nordeste 0 -- -- 86
2017-09-19 02:00:00 10.4 9 Nordeste 16 Nordeste 0 -- -- 83
2017-09-19 01:00:00 9.6 6 Este 14 Norte 0 -- -- 79
2017-09-19 00:00:00 12.8 13 Norte 17 Norte 0 -- -- 69
2017-09-18 23:00:00 14.7 13 Noroeste 16 Noroeste 0 -- -- 56
2017-09-18 22:00:00 10.8 4 Noroeste 8 Oeste 0 -- -- 67
2017-09-18 21:00:00 15.7 4 Noroeste 22 Noroeste 0 -- -- 52
2017-09-18 20:00:00 19.1 11 Norte 21 Noroeste 0 -- -- 46
2017-09-18 19:00:00 20 15 Noroeste 29 Noroeste 0 -- -- 43
2017-09-18 18:00:00 21.7 19 Oeste 30 Oeste 0 -- -- 37
2017-09-18 17:00:00 21.6 17 Oeste 33 Noroeste 0 -- -- 38
2017-09-18 16:00:00 20.4 12 Oeste 26 Oeste 0 -- -- 40
2017-09-18 15:00:00 20 13 Oeste 26 Oeste 0 -- -- 43
2017-09-18 14:00:00 18.4 12 Noroeste 22 Noroeste 0 -- -- 49
2017-09-18 13:00:00 16.6 11 Oeste 19 Oeste 0 -- -- 57
2017-09-18 12:00:00 14.9 10 Oeste 19 Oeste 0 -- -- 65
2017-09-18 11:00:00 12.9 11 Oeste 20 Oeste 0 -- -- 70
2017-09-18 10:00:00 12 4 Sudoeste 14 Sudoeste 0 -- -- 72
2017-09-18 09:00:00 7.2 0 Calma 4 Sur 0 -- -- 90
2017-09-18 08:00:00 4.9 0 Calma 3 Sur 0 -- -- 91
2017-09-18 07:00:00 5.9 2 Sudeste 4 Norte 0.2 -- -- 88
2017-09-18 06:00:00 5.3 3 Este 5 Este 0 -- -- 80
2017-09-18 05:00:00 4.4 2 Este 4 Sur 0 -- -- 82
2017-09-18 04:00:00 4.2 0 Calma 2 Nordeste 0 -- -- 78
2017-09-18 03:00:00 2.9 0 Calma 2 Sudeste 0 -- -- 81
2017-09-18 02:00:00 3.4 0 Calma 5 Sudeste 0 -- -- 77
2017-09-18 01:00:00 3.4 4 Este 6 Sudeste 0 -- -- 76
2017-09-18 00:00:00 5.8 2 Sudeste 4 Sudeste 0 -- -- 68
2017-09-17 23:00:00 7.4 3 Este 4 Sudeste 0 -- -- 65
2017-09-17 22:00:00 10.8 0 Calma 6 Oeste 0 -- -- 54
2017-09-17 21:00:00 15.6 3 Oeste 9 Noroeste 0 -- -- 40
2017-09-17 20:00:00 17.9 8 Noroeste 21 Noroeste 0 -- -- 34
2017-09-17 19:00:00 20.5 13 Oeste 26 Oeste 0 -- -- 30
2017-09-17 18:00:00 21.3 12 Oeste 22 Oeste 0 -- -- 29
2017-09-17 17:00:00 19.9 13 Sudoeste 30 Oeste 0 -- -- 31
2017-09-17 16:00:00 19.1 14 Oeste 27 Oeste 0 -- -- 31
2017-09-17 15:00:00 19 10 Oeste 28 Sudoeste 0 -- -- 35
2017-09-17 14:00:00 18.2 10 Sudoeste 26 Oeste 0 -- -- 37
2017-09-17 13:00:00 16.7 10 Oeste 17 Oeste 0 -- -- 44
2017-09-17 12:00:00 15.5 6 Oeste 17 Sudoeste 0 -- -- 47
2017-09-17 11:00:00 13.1 5 Oeste 9 Oeste 0 -- -- 54
2017-09-17 10:00:00 10.7 0 Calma 3 Sur 0 -- -- 54
2017-09-17 09:00:00 2.9 0 Calma 3 Este 0 -- -- 76
2017-09-17 08:00:00 -2.6 3 Sudeste 5 Sudeste 0 -- -- 90
2017-09-17 07:00:00 -2.1 3 Sudeste 4 Este 0 -- -- 89
2017-09-17 06:00:00 0.1 0 Calma 7 Sudoeste 0 -- -- 84
2017-09-17 05:00:00 -0.4 4 Este 5 Este 0 -- -- 86
2017-09-17 04:00:00 1.1 3 Este 5 Este 0 -- -- 83
2017-09-17 03:00:00 1.9 3 Este 6 Oeste 0 -- -- 77
2017-09-17 02:00:00 5.8 6 Oeste 12 Oeste 0 -- -- 66
2017-09-17 01:00:00 2.5 4 Este 8 Sudeste 0 -- -- 75
2017-09-17 00:00:00 2.8 3 Este 5 Sudeste 0 -- -- 75
2017-09-16 23:00:00 4.1 0 Calma 5 Este 0 -- -- 72
2017-09-16 22:00:00 5.2 2 Sudeste 3 Sudeste 0 -- -- 66
2017-09-16 21:00:00 9.9 0 Calma 9 Noroeste 0 -- -- 52
2017-09-16 20:00:00 15.3 8 Oeste 18 Noroeste 0 -- -- 37
2017-09-16 19:00:00 17.2 12 Oeste 24 Oeste 0 -- -- 34
2017-09-16 18:00:00 18.8 7 Noroeste 27 Noroeste 0 -- -- 31
2017-09-16 17:00:00 17.9 10 Oeste 22 Noroeste 0 -- -- 32
2017-09-16 16:00:00 18.5 8 Oeste 24 Noroeste 0 -- -- 32
2017-09-16 15:00:00 17.4 14 Noroeste 27 Oeste 0 -- -- 35
2017-09-16 14:00:00 17 6 Nordeste 21 Norte 0 -- -- 39
2017-09-16 13:00:00 15.7 5 Este 16 Norte 0 -- -- 43
2017-09-16 12:00:00 15.1 6 Nordeste 21 Nordeste 0 -- -- 46
2017-09-16 11:00:00 13.5 3 Este 10 Este 0 -- -- 55
2017-09-16 10:00:00 9.5 2 Sur 4 Sudeste 0 -- -- 68
2017-09-16 09:00:00 5.3 0 Calma 3 Sudeste 0 -- -- 83
2017-09-16 08:00:00 1.2 3 Sur 8 Nordeste 0 -- -- 90
2017-09-16 07:00:00 3 4 Este 12 Este 0 -- -- 86
2017-09-16 06:00:00 4.2 7 Este 10 Este 0 -- -- 84
2017-09-16 05:00:00 4.7 4 Este 15 Norte 0 -- -- 83
2017-09-16 04:00:00 4.7 9 Nordeste 24 Nordeste 0 -- -- 80
2017-09-16 03:00:00 6.7 14 Nordeste 23 Nordeste 0 -- -- 74
2017-09-16 02:00:00 7.3 16 Nordeste 23 Nordeste 0 -- -- 72
2017-09-16 01:00:00 8.2 15 Nordeste 27 Nordeste 0 -- -- 70
2017-09-16 00:00:00 9.2 21 Nordeste 33 Nordeste 0 -- -- 66
2017-09-15 23:00:00 10.5 23 Nordeste 32 Nordeste 0 -- -- 61
2017-09-15 22:00:00 11.5 24 Nordeste 31 Nordeste 0 -- -- 58
2017-09-15 21:00:00 13 21 Nordeste 29 Nordeste 0 -- -- 50
2017-09-15 20:00:00 14.7 15 Nordeste 27 Nordeste 0 -- -- 43
2017-09-15 19:00:00 18.1 17 Nordeste 28 Nordeste 0 -- -- 35
2017-09-15 18:00:00 17.9 20 Nordeste 35 Norte 0 -- -- 34
2017-09-15 17:00:00 19.5 15 Norte 31 Norte 0 -- -- 32
2017-09-15 16:00:00 18.1 14 Norte 34 Norte 0 -- -- 37
2017-09-15 15:00:00 17.7 19 Norte 35 Nordeste 0 -- -- 38
2017-09-15 14:00:00 17.9 23 Nordeste 38 Norte 0 -- -- 38
2017-09-15 13:00:00 17 22 Nordeste 39 Nordeste 0 -- -- 44
2017-09-15 12:00:00 16.1 24 Nordeste 40 Norte 0 -- -- 47
2017-09-15 11:00:00 14.2 25 Nordeste 39 Norte 0 -- -- 53
2017-09-15 10:00:00 10.8 25 Nordeste 33 Nordeste 0 -- -- 62
2017-09-15 09:00:00 10.4 18 Nordeste 29 Nordeste 0 -- -- 62
2017-09-15 08:00:00 8.9 15 Nordeste 22 Norte 0 -- -- 68
2017-09-15 07:00:00 7.9 9 Nordeste 27 Norte 0 -- -- 72
2017-09-15 06:00:00 9.1 20 Norte 34 Norte 0 -- -- 69
2017-09-15 05:00:00 9.6 28 Norte 39 Norte 0 -- -- 67
2017-09-15 04:00:00 9.6 27 Norte 40 Norte 0 -- -- 72
2017-09-15 03:00:00 10.3 28 Norte 39 Norte 0 -- -- 72
2017-09-15 02:00:00 10.9 27 Norte 40 Norte 0 -- -- 70
2017-09-15 01:00:00 12 26 Norte 39 Norte 0 -- -- 67
2017-09-15 00:00:00 13.2 28 Norte 41 Norte 0 -- -- 62
2017-09-14 23:00:00 14.2 32 Norte 41 Norte 0 -- -- 58
2017-09-14 22:00:00 15 27 Norte 40 Norte 0 -- -- 58
2017-09-14 21:00:00 15.4 21 Nordeste 34 Nordeste 0 -- -- 58
2017-09-14 20:00:00 18.2 23 Nordeste 34 Nordeste 0 -- -- 51
2017-09-14 19:00:00 21.1 26 Nordeste 37 Nordeste 0 -- -- 47
2017-09-14 18:00:00 23.2 27 Nordeste 35 Nordeste 0 -- -- 43
2017-09-14 17:00:00 25.2 19 Norte 36 Nordeste 0 -- -- 41
2017-09-14 16:00:00 26.4 20 Norte 34 Norte 0 -- -- 40
2017-09-14 15:00:00 24.7 14 Oeste 24 Noroeste 0 -- -- 41
2017-09-14 14:00:00 23.9 6 Sudoeste 19 Oeste 0 -- -- 43
2017-09-14 13:00:00 22.6 11 Noroeste 21 Oeste 0 -- -- 41
2017-09-14 12:00:00 22.1 8 Noroeste 19 Oeste 0 -- -- 47
2017-09-14 11:00:00 20.2 5 Oeste 12 Oeste 0 -- -- 53
2017-09-14 10:00:00 17.2 0 Calma 4 Nordeste 0 -- -- 57
2017-09-14 09:00:00 10.8 0 Calma 4 Este 0 -- -- 74
2017-09-14 08:00:00 4.6 2 Este 5 Sudeste 0 -- -- 91
2017-09-14 07:00:00 4.9 3 Este 4 Este 0 -- -- 90
2017-09-14 06:00:00 5.8 2 Sudeste 4 Sudeste 0 -- -- 87
2017-09-14 05:00:00 6.2 -- -- -- -- 0 -- -- 85
2017-09-14 04:00:00 7 3 Sudeste 4 Sudeste 0 -- -- 85
2017-09-14 03:00:00 7.8 3 Sudeste 4 Sudeste 0 -- -- 84
2017-09-14 02:00:00 8.9 2 Este 4 Este 0 -- -- 77
2017-09-14 01:00:00 10.2 2 Este 5 Este 0 -- -- 74
2017-09-14 00:00:00 10.9 0 Calma 3 Este 0 -- -- 73
2017-09-13 23:00:00 13 3 Este 5 Este 0 -- -- 65
2017-09-13 22:00:00 15 2 Sur 4 Noroeste 0 -- -- 61
2017-09-13 21:00:00 20.3 0 Calma 8 Oeste 0 -- -- 46
2017-09-13 20:00:00 27.3 8 Oeste 27 Sudoeste 0 -- -- 30
2017-09-13 19:00:00 29.1 14 Oeste 27 Oeste 0 -- -- 27
2017-09-13 18:00:00 29.1 12 Oeste 25 Sudoeste 0 -- -- 30
2017-09-13 17:00:00 29.1 12 Oeste 27 Oeste 0 -- -- 30
2017-09-13 16:00:00 28.4 15 Oeste 28 Sudoeste 0 -- -- 30
2017-09-13 15:00:00 27.9 14 Oeste 29 Sur 0 -- -- 33
2017-09-13 14:00:00 26.6 15 Oeste 27 Oeste 0 -- -- 36
2017-09-13 13:00:00 24.8 14 Sudoeste 23 Sudoeste 0 -- -- 42
2017-09-13 12:00:00 24.1 4 Sur 12 Sur 0 -- -- 46
2017-09-13 11:00:00 20.8 3 Oeste 7 Oeste 0 -- -- 54
2017-09-13 10:00:00 17.4 0 Calma 5 Sudeste 0 -- -- 61
2017-09-13 09:00:00 11.7 0 Calma 5 Este 0 -- -- 74
2017-09-13 08:00:00 5 5 Este 10 Sudeste 0 -- -- 95
2017-09-13 07:00:00 5.5 3 Este 6 Sudeste 0 -- -- 92
2017-09-13 06:00:00 6.5 3 Este 9 Sudeste 0 -- -- 90
2017-09-13 05:00:00 7.4 4 Nordeste 10 Sudeste 0 -- -- 86
2017-09-13 04:00:00 7.1 6 Sudeste 9 Sudeste 0 -- -- 88
2017-09-13 03:00:00 8.7 4 Nordeste 6 Nordeste 0 -- -- 84
2017-09-13 02:00:00 9.2 0 Calma 8 Nordeste 0 -- -- 81
2017-09-13 01:00:00 11.3 4 Sudoeste 13 Noroeste 0 -- -- 73
2017-09-13 00:00:00 11 0 Calma 7 Este 0 -- -- 76
2017-09-12 23:00:00 11.5 2 Sudeste 8 Nordeste 0 -- -- 75
2017-09-12 22:00:00 12.9 5 Este 6 Este 0 -- -- 67
2017-09-12 21:00:00 17.7 0 Calma 12 Oeste 0 -- -- 52
2017-09-12 20:00:00 22.2 5 Oeste 16 Oeste 0 -- -- 41
2017-09-12 19:00:00 24 11 Noroeste 22 Oeste 0 -- -- 37
2017-09-12 18:00:00 24.2 14 Oeste 26 Oeste 0 -- -- 38
2017-09-12 17:00:00 23.7 13 Noroeste 25 Oeste 0 -- -- 38
2017-09-12 16:00:00 23.8 10 Noroeste 30 Noroeste 0 -- -- 39
2017-09-12 15:00:00 23.1 15 Noroeste 27 Noroeste 0 -- -- 40
2017-09-12 14:00:00 21.5 9 Noroeste 24 Sudoeste 0 -- -- 43
2017-09-12 13:00:00 20.7 8 Sudoeste 24 Sudoeste 0 -- -- 45
2017-09-12 12:00:00 19.5 8 Oeste 21 Oeste 0 -- -- 50
2017-09-12 11:00:00 17.9 6 Oeste 14 Oeste 0 -- -- 55
2017-09-12 10:00:00 15.6 8 Oeste 14 Oeste 0 -- -- 66
2017-09-12 09:00:00 11.2 2 Noroeste 5 Norte 0 -- -- 84
2017-09-12 08:00:00 8.2 4 Este 9 Este 0 -- -- 89
2017-09-12 07:00:00 9.5 4 Oeste 6 Noroeste 0 -- -- 86
2017-09-12 06:00:00 9.7 3 Nordeste 9 Oeste 0 -- -- 83
2017-09-12 05:00:00 11.4 3 Noroeste 8 Sudoeste 0 -- -- 78
2017-09-12 04:00:00 11.4 4 Sudoeste 6 Oeste 0 -- -- 74
2017-09-12 03:00:00 10.8 2 Oeste 7 Oeste 0 -- -- 75
2017-09-12 02:00:00 12.9 3 Sudoeste 5 Sudoeste 0 -- -- 66
2017-09-12 01:00:00 15.4 2 Sudoeste 19 Noroeste 0 -- -- 58
2017-09-12 00:00:00 17.9 12 Noroeste 26 Noroeste 0 -- -- 50
2017-09-11 23:00:00 19.4 17 Noroeste 29 Noroeste 0 -- -- 45
2017-09-11 22:00:00 18.4 7 Noroeste 17 Oeste 0 -- -- 45
2017-09-11 21:00:00 21.8 10 Oeste 23 Oeste 0 -- -- 38
2017-09-11 20:00:00 24.4 16 Oeste 36 Oeste 0 -- -- 35
2017-09-11 19:00:00 26.4 18 Oeste 37 Oeste 0 -- -- 34
2017-09-11 18:00:00 26.6 18 Oeste 44 Oeste 0 -- -- 36
2017-09-11 17:00:00 25.3 18 Oeste 40 Oeste 0 -- -- 40
2017-09-11 16:00:00 26.1 18 Oeste 38 Oeste 0 -- -- 39
2017-09-11 15:00:00 25.2 19 Oeste 33 Oeste 0 -- -- 43
2017-09-11 14:00:00 24.2 16 Oeste 32 Oeste 0 -- -- 49
2017-09-11 13:00:00 22.2 15 Sudoeste 25 Sudoeste 0 -- -- 58
2017-09-11 12:00:00 20.4 13 Sudoeste 23 Oeste 0 -- -- 64
2017-09-11 11:00:00 16.7 13 Sudoeste 20 Oeste 0 -- -- 77
2017-09-11 10:00:00 14 5 Sudoeste 10 Sudoeste 0 -- -- 81
2017-09-11 09:00:00 9.6 0 Calma 5 Sudeste 0 -- -- 83
2017-09-11 08:00:00 5 3 Sudeste 4 Sudeste 0 -- -- 88
2017-09-11 07:00:00 5.4 3 Este 4 Este 0 -- -- 88
2017-09-11 06:00:00 6.7 0 Calma 4 Sudoeste 0 -- -- 82
2017-09-11 05:00:00 7.8 0 Calma 5 Noroeste 0 -- -- 77
2017-09-11 04:00:00 9.1 2 Noroeste 5 Sudoeste 0 -- -- 70
2017-09-11 03:00:00 10.5 2 Oeste 5 Noroeste 0 -- -- 64
2017-09-11 02:00:00 12.7 3 Oeste 6 Oeste 0 -- -- 54
2017-09-11 01:00:00 14.7 4 Oeste 10 Oeste 0 -- -- 48
2017-09-11 00:00:00 16.1 6 Oeste 11 Oeste 0 -- -- 45
2017-09-10 23:00:00 15.8 3 Oeste 6 Oeste 0 -- -- 46
2017-09-10 22:00:00 18.5 2 Oeste 8 Sudoeste 0 -- -- 39
2017-09-10 21:00:00 19.2 5 Sudoeste 11 Sudoeste 0 -- -- 36
2017-09-10 20:00:00 21 6 Oeste 24 Noroeste 0 -- -- 32
2017-09-10 19:00:00 21.9 12 Oeste 30 Oeste 0 -- -- 29
2017-09-10 18:00:00 22.3 15 Oeste 29 Oeste 0 -- -- 29
2017-09-10 17:00:00 21.6 15 Oeste 30 Sudoeste 0 -- -- 31
2017-09-10 16:00:00 21 13 Sudoeste 29 Sudoeste 0 -- -- 33
2017-09-10 15:00:00 20 13 Oeste 28 Oeste 0 -- -- 36
2017-09-10 14:00:00 18.7 8 Oeste 28 Oeste 0 -- -- 41
2017-09-10 13:00:00 17.6 9 Sudoeste 23 Oeste 0 -- -- 43
2017-09-10 12:00:00 16.6 9 Oeste 23 Oeste 0 -- -- 48
2017-09-10 11:00:00 15.2 5 Sudoeste 11 Oeste 0 -- -- 53
2017-09-10 10:00:00 11.7 4 Oeste 9 Oeste 0 -- -- 65
2017-09-10 09:00:00 8.1 0 Calma 4 Sur 0 -- -- 77
2017-09-10 08:00:00 2.9 0 Calma 3 Este 0 -- -- 94
2017-09-10 07:00:00 4.2 2 Este 7 Sur 0 -- -- 91
2017-09-10 06:00:00 3.5 3 Este 5 Sudeste 0 -- -- 92
2017-09-10 05:00:00 2.2 5 Sudeste 8 Sudeste 0 -- -- 93
2017-09-10 04:00:00 3.9 2 Sur 6 Oeste 0 -- -- 88
2017-09-10 03:00:00 5.3 4 Este 8 Nordeste 0 -- -- 85
2017-09-10 02:00:00 7.6 4 Noroeste 15 Norte 0 -- -- 72
2017-09-10 01:00:00 6.6 4 Noroeste 10 Norte 0 -- -- 84
2017-09-10 00:00:00 8.8 3 Oeste 11 Norte 0 -- -- 78
2017-09-09 23:00:00 11.4 10 Norte 14 Norte 0 -- -- 68
2017-09-09 22:00:00 13.3 12 Nordeste 31 Norte 0 -- -- 62
2017-09-09 21:00:00 15.6 26 Nordeste 42 Noroeste 0 -- -- 56
2017-09-09 20:00:00 18.7 26 Noroeste 40 Noroeste 0 -- -- 32
2017-09-09 19:00:00 20.4 22 Noroeste 45 Oeste 0 -- -- 30
2017-09-09 18:00:00 20.8 28 Noroeste 49 Noroeste 0 -- -- 31
2017-09-09 17:00:00 20.7 25 Noroeste 45 Noroeste 0 -- -- 31
2017-09-09 16:00:00 19.8 19 Oeste 43 Noroeste 0 -- -- 35
2017-09-09 15:00:00 19.8 20 Noroeste 41 Oeste 0 -- -- 34
2017-09-09 14:00:00 19.5 22 Oeste 44 Oeste 0 -- -- 37
2017-09-09 13:00:00 19.3 18 Noroeste 39 Oeste 0 -- -- 41
2017-09-09 12:00:00 17.9 20 Oeste 37 Noroeste 0 -- -- 46
2017-09-09 11:00:00 16.8 17 Oeste 35 Oeste 0 -- -- 60
2017-09-09 10:00:00 15.5 16 Oeste 35 Oeste 0 -- -- 70
2017-09-09 09:00:00 12.8 5 Oeste 8 Oeste 0 -- -- 77
2017-09-09 08:00:00 10.2 5 Oeste 8 Oeste 0 -- -- 79
2017-09-09 07:00:00 7.8 0 Calma 4 Nordeste 0 -- -- 85
2017-09-09 06:00:00 6.9 0 Calma 4 Sudeste 0 -- -- 84
2017-09-09 05:00:00 6.7 0 Calma 2 Este 0 -- -- 79
2017-09-09 04:00:00 7.1 0 Calma 3 Noroeste 0 -- -- 78
2017-09-09 03:00:00 7.4 0 Calma 5 Noroeste 0 -- -- 80
2017-09-09 02:00:00 8.5 2 Oeste 6 Sur 0 -- -- 71
2017-09-09 01:00:00 7.7 3 Sudeste 5 Este 0 -- -- 76
2017-09-09 00:00:00 9.3 0 Calma 4 Sudeste 0 -- -- 69
2017-09-08 23:00:00 10.3 4 Sudeste 5 Este 0 -- -- 66
2017-09-08 22:00:00 11.6 2 Sudeste 4 Este 0 -- -- 59
2017-09-08 21:00:00 18.9 0 Calma 9 Oeste 0 -- -- 36
2017-09-08 20:00:00 25.8 8 Oeste 18 Noroeste 0 -- -- 23
2017-09-08 19:00:00 27.7 14 Oeste 23 Oeste 0 -- -- 22
2017-09-08 18:00:00 28.7 12 Oeste 30 Oeste 0 -- -- 20
2017-09-08 17:00:00 28.7 13 Oeste 31 Sudoeste 0 -- -- 20
2017-09-08 16:00:00 28 15 Oeste 29 Oeste 0 -- -- 21
2017-09-08 15:00:00 27.7 14 Oeste 31 Sudoeste 0 -- -- 25
2017-09-08 14:00:00 26.8 12 Oeste 23 Oeste 0 -- -- 27
2017-09-08 13:00:00 24.8 9 Oeste 18 Sudoeste 0 -- -- 29
2017-09-08 12:00:00 22.4 8 Sudoeste 12 Sudoeste 0 -- -- 33
2017-09-08 11:00:00 19.6 6 Oeste 10 Sudoeste 0 -- -- 40
2017-09-08 10:00:00 15.8 0 Calma 4 Este 0 -- -- 53
2017-09-08 09:00:00 7.4 3 Este 6 Este 0 -- -- 86
2017-09-08 08:00:00 4.1 4 Este 5 Este 0 -- -- 92
2017-09-08 07:00:00 4.1 4 Sudeste 6 Este 0 -- -- 91
2017-09-08 06:00:00 4.8 5 Este 7 Este 0 -- -- 89
2017-09-08 05:00:00 5.1 4 Sudeste 6 Sudeste 0 -- -- 87
2017-09-08 04:00:00 6 5 Este 6 Este 0 -- -- 85
2017-09-08 03:00:00 6.3 5 Sudeste 8 Este 0 -- -- 83
2017-09-08 02:00:00 6.9 4 Sudeste 9 Sudeste 0 -- -- 82
2017-09-08 01:00:00 8.1 8 Este 10 Este 0 -- -- 77
2017-09-08 00:00:00 9.5 8 Este 10 Este 0 -- -- 71
2017-09-07 23:00:00 11.4 6 Este 9 Este 0 -- -- 64
2017-09-07 22:00:00 16.3 7 Este 13 Este 0 -- -- 45
2017-09-07 21:00:00 18.9 12 Norte 14 Norte 0 -- -- 37
2017-09-07 20:00:00 24.7 9 Norte 13 Norte 0 -- -- 26
2017-09-07 19:00:00 26.5 6 Norte 14 Norte 0 -- -- 22
2017-09-07 18:00:00 28 10 Norte 18 Norte 0 -- -- 21
2017-09-07 17:00:00 28.1 11 Norte 19 Este 0 -- -- 20
2017-09-07 16:00:00 27.7 14 Nordeste 23 Nordeste 0 -- -- 22
2017-09-07 15:00:00 26.5 9 Norte 22 Nordeste 0 -- -- 24
2017-09-07 14:00:00 24.6 11 Nordeste 20 Nordeste 0 -- -- 27
2017-09-07 13:00:00 21.3 5 Sudeste 13 Este 0 -- -- 41
2017-09-07 12:00:00 18.6 6 Este 11 Nordeste 0 -- -- 53
2017-09-07 11:00:00 15.5 5 Este 11 Este 0 -- -- 67
2017-09-07 10:00:00 13.2 3 Este 6 Este 0 -- -- 74
2017-09-07 09:00:00 8.4 0 Calma 4 Sudeste 0 -- -- 91
2017-09-07 08:00:00 3.1 0 Calma 6 Sudeste 0 -- -- 97
2017-09-07 07:00:00 4.2 4 Sudeste 7 Sudeste 0 -- -- 95
2017-09-07 06:00:00 6.2 5 Sudeste 9 Sudeste 0 -- -- 96
2017-09-07 05:00:00 6.8 0 Calma 5 Nordeste 0 -- -- 94
2017-09-07 04:00:00 8.7 6 Este 10 Nordeste 0 -- -- 88
2017-09-07 03:00:00 10.2 4 Este 12 Nordeste 0 -- -- 82
2017-09-07 02:00:00 10.7 5 Nordeste 14 Este 0 -- -- 82
2017-09-07 01:00:00 11.9 4 Este 12 Sudeste 0 -- -- 78
2017-09-07 00:00:00 13.1 4 Sudeste 26 Nordeste 0 -- -- 73
2017-09-06 23:00:00 15.4 17 Norte 31 Norte 0 -- -- 68
2017-09-06 22:00:00 17.1 22 Norte 35 Norte 0 -- -- 63
2017-09-06 21:00:00 19.4 28 Norte 42 Norte 0 -- -- 56
2017-09-06 20:00:00 22.4 32 Norte 44 Norte 0 -- -- 47
2017-09-06 19:00:00 25.9 30 Norte 39 Nordeste 0 -- -- 42
2017-09-06 18:00:00 28.5 24 Norte 36 Nordeste 0 -- -- 40
2017-09-06 17:00:00 29.9 18 Norte 29 Norte 0 -- -- 38
2017-09-06 16:00:00 29.2 11 Nordeste 27 Nordeste 0 -- -- 38
2017-09-06 15:00:00 28.7 12 Nordeste 25 Norte 0 -- -- 40
2017-09-06 14:00:00 28.1 13 Nordeste 24 Nordeste 0 -- -- 43
2017-09-06 13:00:00 25.7 10 Nordeste 22 Nordeste 0 -- -- 51
2017-09-06 12:00:00 23.9 13 Nordeste 24 Este 0 -- -- 54
2017-09-06 11:00:00 22.4 15 Nordeste 26 Nordeste 0 -- -- 58
2017-09-06 10:00:00 19.9 21 Nordeste 27 Nordeste 0 -- -- 62
2017-09-06 09:00:00 16.9 16 Nordeste 26 Nordeste 0 -- -- 71
2017-09-06 08:00:00 13.6 10 Este 15 Este 0 -- -- 85
2017-09-06 07:00:00 14.2 5 Este 19 Norte 0 -- -- 80
2017-09-06 06:00:00 14.9 6 Este 16 Nordeste 0 -- -- 84
2017-09-06 05:00:00 15.6 16 Nordeste 29 Norte 0 -- -- 83
2017-09-06 04:00:00 15.8 21 Norte 27 Norte 0 -- -- 82
2017-09-06 03:00:00 15.9 3 Sudeste 25 Norte 0 -- -- 82
2017-09-06 02:00:00 17 20 Norte 27 Norte 0 -- -- 81
2017-09-06 01:00:00 17.9 16 Norte 24 Norte 0 -- -- 78
2017-09-06 00:00:00 19.3 9 Norte 20 Norte 0 -- -- 72
2017-09-05 23:00:00 20.6 11 Nordeste 18 Norte 0 -- -- 62
2017-09-05 22:00:00 20.5 7 Noroeste 14 Norte 0 -- -- 50
2017-09-05 21:00:00 25 8 Noroeste 17 Oeste 0 -- -- 38
2017-09-05 20:00:00 29.9 12 Oeste 20 Oeste 0 -- -- 30
2017-09-05 19:00:00 31.6 9 Oeste 21 Oeste 0 -- -- 26
2017-09-05 18:00:00 32.2 7 Noroeste 17 Oeste 0 -- -- 26
2017-09-05 17:00:00 32.5 10 Norte 20 Oeste 0 -- -- 28
2017-09-05 16:00:00 31.1 5 Norte 21 Noroeste 0 -- -- 32
2017-09-05 15:00:00 29.6 11 Noroeste 21 Oeste 0 -- -- 34
2017-09-05 14:00:00 29.4 5 Sur 19 Sudoeste 0 -- -- 37
2017-09-05 13:00:00 27.8 9 Oeste 15 Sudoeste 0 -- -- 40
2017-09-05 12:00:00 26.9 4 Sudeste 9 Sudoeste 0 -- -- 43
2017-09-05 11:00:00 24.1 3 Sudoeste 6 Oeste 0 -- -- 49
2017-09-05 10:00:00 19.7 4 Este 9 Este 0 -- -- 63
2017-09-05 09:00:00 14.8 0 Calma 8 Este 0 -- -- 82
2017-09-05 08:00:00 8.3 7 Este 8 Este 0 -- -- 96
2017-09-05 07:00:00 8.4 5 Sudeste 8 Este 0 -- -- 95
2017-09-05 06:00:00 8.5 5 Sudeste 9 Este 0 -- -- 95
2017-09-05 05:00:00 9.1 5 Sudeste 10 Este 0 -- -- 92
2017-09-05 04:00:00 9.9 4 Este 7 Este 0 -- -- 93
2017-09-05 03:00:00 10.9 5 Este 10 Este 0 -- -- 93
2017-09-05 02:00:00 11.8 5 Este 10 Este 0 -- -- 88
2017-09-05 01:00:00 12.8 5 Este 10 Este 0 -- -- 84
2017-09-05 00:00:00 13.2 5 Este 10 Este 0 -- -- 84
2017-09-04 23:00:00 14.4 4 Este 6 Este 0 -- -- 79
2017-09-04 22:00:00 16.3 4 Este 5 Este 0 -- -- 73
2017-09-04 21:00:00 20.9 4 Este 8 Este 0 -- -- 54
2017-09-04 20:00:00 26.2 4 Nordeste 11 Norte 0 -- -- 40
2017-09-04 19:00:00 28.1 6 Este 14 Nordeste 0 -- -- 36
2017-09-04 18:00:00 28.1 3 Sudoeste 15 Nordeste 0 -- -- 37
2017-09-04 17:00:00 28.9 5 Este 14 Este 0 -- -- 37
2017-09-04 16:00:00 26.6 8 Noroeste 13 Sudoeste 0 -- -- 41
2017-09-04 15:00:00 24.9 5 Sudeste 10 Sudeste 0 -- -- 45
2017-09-04 14:00:00 24.4 5 Sudoeste 17 Sudoeste 0 -- -- 49
2017-09-04 13:00:00 21.9 8 Sudoeste 19 Oeste 0 -- -- 58
2017-09-04 12:00:00 19.2 10 Oeste 22 Oeste 0 -- -- 66
2017-09-04 11:00:00 19.7 10 Oeste 21 Oeste 0 -- -- 66
2017-09-04 10:00:00 17.2 8 Oeste 17 Oeste 0 -- -- 76
2017-09-04 09:00:00 15.4 4 Oeste 8 Oeste 0 -- -- 74
2017-09-04 08:00:00 10.7 4 Oeste 5 Oeste 0 -- -- 83
2017-09-04 07:00:00 11.5 3 Sudeste 4 Sudeste 0 -- -- 83
2017-09-04 06:00:00 11.2 0 Calma 6 Oeste 0 -- -- 77
2017-09-04 05:00:00 11.9 0 Calma 3 Oeste 0 -- -- 75
2017-09-04 04:00:00 12.9 2 Oeste 7 Sudoeste 0 -- -- 65
2017-09-04 03:00:00 14.8 4 Oeste 9 Sudoeste 0 -- -- 56
2017-09-04 02:00:00 15.2 4 Oeste 9 Oeste 0 -- -- 54
2017-09-04 01:00:00 14.5 3 Sudoeste 8 Sudoeste 0 -- -- 55
2017-09-04 00:00:00 13.8 3 Sudoeste 7 Sudoeste 0 -- -- 65
2017-09-03 23:00:00 16.1 3 Oeste 8 Noroeste 0 -- -- 52
2017-09-03 22:00:00 22.2 3 Oeste 17 Oeste 0 -- -- 37
2017-09-03 21:00:00 25.8 12 Oeste 24 Oeste 0 -- -- 29
2017-09-03 20:00:00 27.5 10 Oeste 22 Oeste 0 -- -- 28
2017-09-03 19:00:00 29.9 10 Oeste 32 Noroeste 0 -- -- 21
2017-09-03 18:00:00 30.4 9 Oeste 29 Oeste 0 -- -- 20
2017-09-03 17:00:00 29 13 Oeste 27 Oeste 0 -- -- 18
2017-09-03 16:00:00 28.7 14 Sudoeste 29 Sudoeste 0 -- -- 23
2017-09-03 15:00:00 27.4 11 Oeste 27 Sudoeste 0 -- -- 23
2017-09-03 14:00:00 26.7 12 Sudoeste 29 Sur 0 -- -- 26
2017-09-03 13:00:00 25.3 12 Oeste 22 Sudoeste 0 -- -- 28
2017-09-03 12:00:00 23.5 11 Oeste 17 Oeste 0 -- -- 31
2017-09-03 11:00:00 21.4 4 Oeste 9 Oeste 0 -- -- 40
2017-09-03 10:00:00 19 2 Sudoeste 4 Sudoeste 0 -- -- 48
2017-09-03 09:00:00 11.9 2 Sudeste 3 Sudeste 0 -- -- 83
2017-09-03 08:00:00 11.1 0 Calma 2 Sudoeste 0 -- -- 85
2017-09-03 07:00:00 10.7 0 Calma 8 Este 0 -- -- 89
2017-09-03 06:00:00 9.4 3 Este 8 Este 0 -- -- 91
2017-09-03 05:00:00 8.7 4 Este 5 Este 0 -- -- 90
2017-09-03 04:00:00 7.9 2 Este 4 Sudeste 0 -- -- 89
2017-09-03 03:00:00 8.5 3 Sudeste 6 Sudeste 0 -- -- 86
2017-09-03 02:00:00 9.4 4 Sudeste 9 Este 0 -- -- 84
2017-09-03 01:00:00 8.8 5 Sudeste 8 Sudeste 0 -- -- 83
2017-09-03 00:00:00 9.8 4 Sudeste 6 Este 0 -- -- 78
2017-09-02 23:00:00 11.3 3 Este 6 Este 0 -- -- 74
2017-09-02 22:00:00 14.2 4 Este 8 Nordeste 0 -- -- 60
2017-09-02 21:00:00 17.5 3 Nordeste 7 Este 0 -- -- 48
2017-09-02 20:00:00 26.4 3 Oeste 11 Sudoeste 0 -- -- 23
2017-09-02 19:00:00 25.6 8 Oeste 13 Oeste 0 -- -- 22
2017-09-02 18:00:00 26.5 5 Norte 13 Este 0 -- -- 21
2017-09-02 17:00:00 25.5 5 Sur 14 Sudeste 0 -- -- 22
2017-09-02 16:00:00 23.8 8 Este 18 Nordeste 0 -- -- 25
2017-09-02 15:00:00 23.1 9 Nordeste 22 Nordeste 0 -- -- 25
2017-09-02 14:00:00 21.9 8 Este 18 Este 0 -- -- 29
2017-09-02 13:00:00 20.4 7 Sudeste 16 Este 0 -- -- 35
2017-09-02 12:00:00 18.6 5 Este 16 Este 0 -- -- 40
2017-09-02 11:00:00 16.3 10 Este 18 Nordeste 0 -- -- 52
2017-09-02 10:00:00 15.4 14 Nordeste 21 Nordeste 0 -- -- 61
2017-09-02 09:00:00 12 9 Nordeste 14 Nordeste 0 -- -- 78
2017-09-02 08:00:00 7.2 8 Este 13 Este 0 -- -- 95
2017-09-02 07:00:00 6 6 Este 10 Este 0 -- -- 95
2017-09-02 06:00:00 8.6 5 Sudeste 17 Nordeste 0 -- -- 89
2017-09-02 05:00:00 8.4 6 Este 13 Nordeste 0 -- -- 92
2017-09-02 04:00:00 9.4 12 Este 26 Nordeste 0 -- -- 87
2017-09-02 03:00:00 11.4 21 Nordeste 33 Nordeste 0 -- -- 77
2017-09-02 02:00:00 12 24 Nordeste 33 Nordeste 0 -- -- 75
2017-09-02 01:00:00 12.6 24 Nordeste 32 Nordeste 0 -- -- 71
2017-09-02 00:00:00 13.5 26 Nordeste 36 Nordeste 0 -- -- 66
2017-09-01 23:00:00 14.3 27 Nordeste 35 Nordeste 0 -- -- 62
2017-09-01 22:00:00 15.7 19 Nordeste 32 Nordeste 0 -- -- 56
2017-09-01 21:00:00 17.8 19 Nordeste 28 Nordeste 0 -- -- 45
2017-09-01 20:00:00 21.3 18 Nordeste 30 Nordeste 0 -- -- 36
2017-09-01 19:00:00 23.4 19 Nordeste 28 Norte 0 -- -- 34
2017-09-01 18:00:00 24.2 15 Nordeste 29 Nordeste 0 -- -- 35
2017-09-01 17:00:00 24.3 19 Nordeste 31 Norte 0 -- -- 36
2017-09-01 16:00:00 24.1 17 Nordeste 28 Norte 0 -- -- 36
2017-09-01 15:00:00 23.6 12 Norte 24 Norte 0 -- -- 38
2017-09-01 14:00:00 22.9 13 Norte 28 Norte 0 -- -- 42
2017-09-01 13:00:00 21.9 13 Nordeste 24 Nordeste 0 -- -- 48
2017-09-01 12:00:00 20.3 17 Nordeste 26 Nordeste 0 -- -- 55
2017-09-01 11:00:00 17.8 18 Nordeste 24 Nordeste 0 -- -- 65
2017-09-01 10:00:00 15.6 15 Norte 22 Norte 0 -- -- 73
2017-09-01 09:00:00 13.1 14 Norte 21 Norte 0 -- -- 82
2017-09-01 08:00:00 10.5 15 Nordeste 21 Nordeste 0 -- -- 92
2017-09-01 07:00:00 10.6 10 Nordeste 24 Nordeste 0 -- -- 92
2017-09-01 06:00:00 11.2 18 Nordeste 23 Nordeste 0 -- -- 91
2017-09-01 05:00:00 11.5 17 Nordeste 23 Norte 0 -- -- 90
2017-09-01 04:00:00 12.1 17 Nordeste 27 Norte 0 -- -- 87
2017-09-01 03:00:00 12.4 10 Nordeste 25 Norte 0 -- -- 86
2017-09-01 02:00:00 12.8 19 Nordeste 28 Norte 0 -- -- 83
2017-09-01 01:00:00 13.1 8 Este 24 Nordeste 0 -- -- 81
2017-09-01 00:00:00 14.4 14 Nordeste 22 Nordeste 0 -- -- 74
2017-08-31 23:00:00 15.7 17 Nordeste 23 Nordeste 0 -- -- 68
2017-08-31 22:00:00 16.8 12 Norte 15 Norte 0 -- -- 66
2017-08-31 21:00:00 19 11 Norte 18 Nordeste 0 -- -- 58
2017-08-31 20:00:00 23.2 13 Norte 20 Norte 0 -- -- 43
2017-08-31 19:00:00 25.6 10 Nordeste 17 Norte 0 -- -- 40
2017-08-31 18:00:00 25.9 9 Norte 17 Nordeste 0 -- -- 39
2017-08-31 17:00:00 25.3 8 Este 16 Este 0 -- -- 42
2017-08-31 16:00:00 24.2 7 Noroeste 19 Norte 0 -- -- 47
2017-08-31 15:00:00 23.7 8 Norte 13 Nordeste 0 -- -- 47
2017-08-31 14:00:00 23 9 Norte 15 Este 0 -- -- 52
2017-08-31 13:00:00 21.4 6 Este 15 Nordeste 0 -- -- 60
2017-08-31 12:00:00 19.6 6 Nordeste 15 Este 0 -- -- 64
2017-08-31 11:00:00 17.9 10 Nordeste 19 Este 0 -- -- 72
2017-08-31 10:00:00 16.4 15 Nordeste 20 Norte 0 -- -- 76
2017-08-31 09:00:00 14.3 14 Nordeste 22 Norte 0 -- -- 84
2017-08-31 08:00:00 11.9 17 Norte 23 Norte 0 -- -- 92
2017-08-31 07:00:00 12 5 Este 17 Nordeste 0 -- -- 93
2017-08-31 06:00:00 13.1 10 Nordeste 23 Norte 0 -- -- 93
2017-08-31 05:00:00 13.6 19 Norte 25 Norte 0 -- -- 94
2017-08-31 04:00:00 14.2 16 Norte 22 Norte 0 -- -- 94
2017-08-31 03:00:00 14.8 4 Norte 10 Nordeste 0 -- -- 97
2017-08-31 02:00:00 15 4 Sur 9 Este 0 -- -- 96
2017-08-31 01:00:00 15.1 9 Nordeste 16 Nordeste 0 -- -- 95
2017-08-31 00:00:00 15.1 10 Nordeste 20 Oeste 3.6 -- -- 96
2017-08-30 23:00:00 15.8 17 Oeste 36 Noroeste 1.6 -- -- 88
2017-08-30 22:00:00 18.4 24 Norte 37 Noroeste 0 -- -- 74
2017-08-30 21:00:00 20.2 17 Norte 32 Oeste 0 -- -- 63
2017-08-30 20:00:00 23.3 10 Oeste 18 Oeste 0 -- -- 44
2017-08-30 19:00:00 24.2 7 Oeste 25 Oeste 0 -- -- 40
2017-08-30 18:00:00 25.1 9 Oeste 24 Oeste 0 -- -- 38
2017-08-30 17:00:00 25.9 12 Oeste 36 Sur 0 -- -- 37
2017-08-30 16:00:00 24.5 14 Oeste 32 Sudoeste 0 -- -- 39
2017-08-30 15:00:00 24.2 15 Oeste 30 Sudoeste 0 -- -- 40
2017-08-30 14:00:00 23.6 13 Sudoeste 28 Sudoeste 0 -- -- 45
2017-08-30 13:00:00 22.1 10 Sudoeste 21 Sur 0 -- -- 56
2017-08-30 12:00:00 21.2 5 Oeste 13 Sudoeste 0 -- -- 60
2017-08-30 11:00:00 17.5 12 Oeste 17 Oeste 0 -- -- 76
2017-08-30 10:00:00 17 5 Oeste 9 Oeste 0 -- -- 77
2017-08-30 09:00:00 14.5 0 Calma 6 Este 0 -- -- 95
2017-08-30 08:00:00 9.8 0 Calma 10 Sudeste 0 -- -- 100
2017-08-30 07:00:00 10.8 4 Nordeste 10 Este 0 -- -- 100
2017-08-30 06:00:00 11.3 0 Calma 8 Este 0 -- -- 100
2017-08-30 05:00:00 11.2 0 Calma 4 Sur 0 -- -- 98
2017-08-30 04:00:00 12.1 0 Calma 5 Sudeste 0 -- -- 99
2017-08-30 03:00:00 12 2 Sudeste 8 Oeste 0 -- -- 98
2017-08-30 02:00:00 13.7 6 Oeste 12 Oeste 0 -- -- 97
2017-08-30 01:00:00 13.5 5 Este 10 Este 0 -- -- 97
2017-08-30 00:00:00 15 7 Este 22 Este 0 -- -- 91
2017-08-29 23:00:00 15.1 5 Oeste 9 Oeste 0 -- -- 93
2017-08-29 22:00:00 15.1 6 Sudoeste 27 Sur 5.4 -- -- 96
2017-08-29 21:00:00 17.9 18 Norte 23 Norte 0 -- -- 78
2017-08-29 20:00:00 17.3 10 Noroeste 19 Sudoeste 1.2 -- -- 84
2017-08-29 19:00:00 19.9 10 Norte 24 Sur 6.8 -- -- 75
2017-08-29 18:00:00 26.4 6 Este 14 Este 0 -- -- 38
2017-08-29 17:00:00 26.2 8 Nordeste 17 Nordeste 0 -- -- 39
2017-08-29 16:00:00 24.9 9 Norte 18 Nordeste 0 -- -- 45
2017-08-29 15:00:00 23.3 6 Noroeste 13 Noroeste 0 -- -- 47
2017-08-29 14:00:00 23.3 7 Nordeste 15 Norte 0 -- -- 51
2017-08-29 13:00:00 22.6 5 Norte 13 Sudeste 0 -- -- 56
2017-08-29 12:00:00 21.8 4 Sudoeste 10 Este 0 -- -- 60
2017-08-29 11:00:00 20.1 7 Sudeste 12 Este 0 -- -- 71
2017-08-29 10:00:00 18.5 4 Este 9 Sudeste 0 -- -- 80
2017-08-29 09:00:00 15.1 3 Este 5 Este 0 -- -- 85
2017-08-29 08:00:00 9 3 Este 12 Este 0 -- -- 96
2017-08-29 07:00:00 12.3 5 Este 13 Este 0 -- -- 95
2017-08-29 06:00:00 10.4 5 Este 10 Oeste 0 -- -- 98
2017-08-29 05:00:00 11.7 3 Oeste 10 Norte 0 -- -- 97
2017-08-29 04:00:00 13 9 Norte 15 Norte 0 -- -- 94
2017-08-29 03:00:00 12.9 8 Nordeste 16 Este 0 -- -- 97
2017-08-29 02:00:00 11.6 4 Este 13 Nordeste 0 -- -- 97
2017-08-29 01:00:00 13.7 10 Este 15 Este 0 -- -- 94
2017-08-29 00:00:00 14.4 12 Este 15 Este 0 -- -- 93
2017-08-28 23:00:00 14.8 13 Este 25 Este 0 -- -- 92
2017-08-28 22:00:00 14.9 16 Este 29 Este 0.2 -- -- 93
2017-08-28 21:00:00 15.2 20 Este 37 Este 0.8 -- -- 93
2017-08-28 20:00:00 16.1 21 Este 36 Este 0.4 -- -- 93
2017-08-28 19:00:00 16.2 19 Este 26 Este 0.2 -- -- 92
2017-08-28 18:00:00 16.6 14 Este 37 Este 0 -- -- 90
2017-08-28 17:00:00 16.3 25 Este 41 Este 1.4 -- -- 97
2017-08-28 16:00:00 14.9 9 Este 32 Este 6.6 -- -- 98
2017-08-28 15:00:00 15.5 15 Sudeste 28 Sudeste 0.8 -- -- 93
2017-08-28 14:00:00 17 24 Este 32 Este 0.8 -- -- 88
2017-08-28 13:00:00 19.3 12 Este 20 Este 0 -- -- 85
2017-08-28 12:00:00 19 17 Nordeste 24 Nordeste 0.6 -- -- 87
2017-08-28 11:00:00 18.6 7 Este 17 Este 0 -- -- 85
2017-08-28 10:00:00 18.1 11 Este 18 Este 0 -- -- 86
2017-08-28 09:00:00 16.3 11 Nordeste 16 Este 1.6 -- -- 92
2017-08-28 08:00:00 16 11 Sudeste 20 Nordeste 0 -- -- 87
2017-08-28 07:00:00 14.9 9 Este 13 Este 0 -- -- 90
2017-08-28 06:00:00 14 9 Este 13 Este 0 -- -- 93
2017-08-28 05:00:00 14.7 3 Nordeste 45 Este 0 -- -- 89
2017-08-28 04:00:00 15.9 33 Este 51 Este 0.4 -- -- 86
2017-08-28 03:00:00 15.8 9 Nordeste 13 Nordeste 0 -- -- 85
2017-08-28 02:00:00 15.4 4 Noroeste 15 Este 0 -- -- 87
2017-08-28 01:00:00 14.8 7 Este 17 Este 0 -- -- 90
2017-08-28 00:00:00 15 10 Este 17 Este 0 -- -- 85
2017-08-27 23:00:00 14.7 11 Este 21 Este 0 -- -- 87
2017-08-27 22:00:00 14 14 Nordeste 22 Este 0 -- -- 89
2017-08-27 21:00:00 13.3 6 Este 18 Norte 0.2 -- -- 91
2017-08-27 20:00:00 14.8 9 Norte 55 Sudoeste 4.2 -- -- 90
2017-08-27 19:00:00 21.4 7 Sudoeste 27 Sur 0.2 -- -- 65
2017-08-27 18:00:00 24.4 5 Sudeste 20 Este 0 -- -- 57
2017-08-27 17:00:00 23.4 17 Este 32 Este 0 -- -- 59
2017-08-27 16:00:00 23.8 23 Este 33 Este 0 -- -- 60
2017-08-27 15:00:00 20.6 22 Este 33 Este 0 -- -- 71
2017-08-27 14:00:00 19.2 19 Este 32 Nordeste 1 -- -- 89
2017-08-27 13:00:00 17.2 14 Este 22 Este 2 -- -- 86
2017-08-27 12:00:00 19 12 Norte 37 Nordeste 0.6 -- -- 82
2017-08-27 11:00:00 19.6 26 Nordeste 45 Nordeste 0 -- -- 70
2017-08-27 10:00:00 20.5 28 Norte 39 Nordeste 0 -- -- 69
2017-08-27 09:00:00 17.2 26 Norte 35 Norte 1.8 -- -- 82
2017-08-27 08:00:00 20.2 20 Noroeste 45 Norte 0 -- -- 60
2017-08-27 07:00:00 19 10 Este 16 Este 0 -- -- 65
2017-08-27 06:00:00 18.3 11 Este 14 Este 0 -- -- 76
2017-08-27 05:00:00 21.9 3 Este 32 Sudoeste 0 -- -- 51
2017-08-27 04:00:00 21 6 Sur 12 Sudoeste 0 -- -- 42
2017-08-27 03:00:00 20.6 10 Este 14 Este 0 -- -- 41
2017-08-27 02:00:00 18.4 10 Este 13 Este 0 -- -- 46
2017-08-27 01:00:00 19.3 9 Este 17 Este 0 -- -- 45
2017-08-27 00:00:00 18.7 7 Este 10 Este 0 -- -- 48
2017-08-26 23:00:00 17.6 4 Este 8 Este 0 -- -- 51
2017-08-26 22:00:00 21 4 Este 12 Sudeste 0 -- -- 43
2017-08-26 21:00:00 24.3 8 Sudeste 22 Sudeste 0 -- -- 36
2017-08-26 20:00:00 25.7 13 Sur 40 Sur 0 -- -- 34
2017-08-26 19:00:00 26.6 19 Sur 42 Sur 0 -- -- 32
2017-08-26 18:00:00 28.9 21 Sudoeste 43 Sur 0 -- -- 25
2017-08-26 17:00:00 30 20 Sur 36 Sur 0 -- -- 24
2017-08-26 16:00:00 30 17 Sur 29 Sur 0 -- -- 24
2017-08-26 15:00:00 30.2 11 Sur 24 Oeste 0 -- -- 22
2017-08-26 14:00:00 29.2 13 Oeste 31 Sudoeste 0 -- -- 23
2017-08-26 13:00:00 26.4 15 Sudoeste 31 Sudoeste 0 -- -- 24
2017-08-26 12:00:00 27.9 12 Oeste 19 Oeste 0 -- -- 22
2017-08-26 11:00:00 24.6 6 Noroeste 12 Noroeste 0 -- -- 32
2017-08-26 10:00:00 20.9 2 Este 12 Este 0 -- -- 36
2017-08-26 09:00:00 12.7 4 Este 6 Sudeste 0 -- -- 50
2017-08-26 08:00:00 6.8 4 Sudeste 8 Este 0 -- -- 68
2017-08-26 07:00:00 7.8 6 Este 8 Este 0 -- -- 63
2017-08-26 06:00:00 8.2 5 Este 8 Este 0 -- -- 61
2017-08-26 05:00:00 8.6 4 Sudeste 7 Este 0 -- -- 62
2017-08-26 04:00:00 10.8 5 Este 7 Este 0 -- -- 52
2017-08-26 03:00:00 10.8 4 Este 7 Sudeste 0 -- -- 51
2017-08-26 02:00:00 11.2 5 Este 8 Sudeste 0 -- -- 49
2017-08-26 01:00:00 12.8 3 Este 8 Este 0 -- -- 43
2017-08-26 00:00:00 13.4 6 Este 8 Sudeste 0 -- -- 43
2017-08-25 23:00:00 16.1 4 Este 5 Este 0 -- -- 36
2017-08-25 22:00:00 19.2 2 Este 6 Oeste 0 -- -- 31
2017-08-25 21:00:00 26.3 5 Oeste 14 Noroeste 0 -- -- 22
2017-08-25 20:00:00 31.3 9 Oeste 22 Oeste 0 -- -- 17
2017-08-25 19:00:00 31.4 13 Oeste 26 Oeste 0 -- -- 17
2017-08-25 18:00:00 30.8 15 Oeste 30 Sudoeste 0 -- -- 19
2017-08-25 17:00:00 32.1 13 Oeste 33 Oeste 0 -- -- 19
2017-08-25 16:00:00 32.6 13 Oeste 32 Oeste 0 -- -- 19
2017-08-25 15:00:00 31.8 18 Oeste 32 Noroeste 0 -- -- 22
2017-08-25 14:00:00 31.1 7 Oeste 24 Sudoeste 0 -- -- 24
2017-08-25 13:00:00 28.5 10 Sudoeste 22 Sudoeste 0 -- -- 25
2017-08-25 12:00:00 27.7 4 Este 12 Este 0 -- -- 29
2017-08-25 11:00:00 23.9 3 Sudeste 7 Sudeste 0 -- -- 35
2017-08-25 10:00:00 19.3 2 Sudeste 5 Este 0 -- -- 42
2017-08-25 09:00:00 9.3 3 Este 8 Este 0 -- -- 66
2017-08-25 08:00:00 6.2 3 Sudeste 4 Sudeste 0 -- -- 76
2017-08-25 07:00:00 6.2 4 Este 8 Este 0 -- -- 73
2017-08-25 06:00:00 6.9 3 Este 4 Este 0 -- -- 72
2017-08-25 05:00:00 8.1 0 Calma 4 Nordeste 0 -- -- 70
2017-08-25 04:00:00 9.1 3 Este 8 Este 0 -- -- 64
2017-08-25 03:00:00 10.2 2 Este 5 Nordeste 0 -- -- 65
2017-08-25 02:00:00 12.4 2 Este 9 Este 0 -- -- 57
2017-08-25 01:00:00 13.3 3 Este 10 Este 0 -- -- 54
2017-08-25 00:00:00 13.6 6 Este 8 Este 0 -- -- 50
2017-08-24 23:00:00 16.3 0 Calma 8 Oeste 0 -- -- 48
2017-08-24 22:00:00 21.9 4 Oeste 12 Oeste 0 -- -- 35
2017-08-24 21:00:00 26.5 9 Oeste 23 Oeste 0 -- -- 28
2017-08-24 20:00:00 29.9 14 Oeste 35 Oeste 0 -- -- 22
2017-08-24 19:00:00 31.8 16 Oeste 36 Oeste 0 -- -- 19
2017-08-24 18:00:00 32.8 17 Oeste 36 Oeste 0 -- -- 17
2017-08-24 17:00:00 33 15 Sudoeste 34 Sudoeste 0 -- -- 21
2017-08-24 16:00:00 32.6 14 Sudoeste 40 Sur 0 -- -- 21
2017-08-24 15:00:00 32.4 19 Sur 41 Sudoeste 0 -- -- 21
2017-08-24 14:00:00 31.6 19 Sudoeste 36 Sur 0 -- -- 24
2017-08-24 13:00:00 31.4 18 Sur 38 Sudoeste 0 -- -- 23
2017-08-24 12:00:00 30.5 11 Sudoeste 21 Sudoeste 0 -- -- 29
2017-08-24 11:00:00 27.1 4 Sudeste 10 Este 0 -- -- 38
2017-08-24 10:00:00 23.7 3 Sudeste 10 Este 0 -- -- 43
2017-08-24 09:00:00 17.2 4 Este 7 Este 0 -- -- 54
2017-08-24 08:00:00 10 5 Este 9 Sudeste 0 -- -- 74
2017-08-24 07:00:00 10 7 Este 8 Este 0 -- -- 71
2017-08-24 06:00:00 10.8 4 Este 6 Este 0 -- -- 68
2017-08-24 05:00:00 12.3 2 Este 9 Este 0 -- -- 61
2017-08-24 04:00:00 11.2 4 Sudeste 6 Este 0 -- -- 63
2017-08-24 03:00:00 13 3 Este 10 Este 0 -- -- 58
2017-08-24 02:00:00 13.7 4 Este 10 Sur 0 -- -- 54
2017-08-24 01:00:00 15.4 2 Este 5 Sur 0 -- -- 53
2017-08-24 00:00:00 17.3 4 Nordeste 10 Sudeste 0 -- -- 45
2017-08-23 23:00:00 19.2 2 Sudeste 6 Este 0 -- -- 46
2017-08-23 22:00:00 23 4 Nordeste 13 Sudeste 0 -- -- 31
2017-08-23 21:00:00 28.1 3 Oeste 12 Oeste 0 -- -- 27
2017-08-23 20:00:00 32.5 8 Oeste 23 Oeste 0 -- -- 20
2017-08-23 19:00:00 33.3 9 Oeste 22 Noroeste 0 -- -- 20
2017-08-23 18:00:00 35.7 13 Oeste 21 Oeste 0 -- -- 19
2017-08-23 17:00:00 35.1 9 Oeste 24 Oeste 0 -- -- 21
2017-08-23 16:00:00 34.6 8 Sur 25 Sur 0 -- -- 22
2017-08-23 15:00:00 34 8 Noroeste 18 Noroeste 0 -- -- 23
2017-08-23 14:00:00 32.7 4 Oeste 14 Oeste 0 -- -- 28
2017-08-23 13:00:00 31 4 Oeste 9 Sudoeste 0 -- -- 33
2017-08-23 12:00:00 27.5 4 Noroeste 13 Oeste 0 -- -- 38
2017-08-23 11:00:00 23.8 4 Oeste 10 Sudoeste 0 -- -- 41
2017-08-23 10:00:00 21.5 2 Sur 5 Sudeste 0 -- -- 44
2017-08-23 09:00:00 17 0 Calma 6 Este 0 -- -- 57
2017-08-23 08:00:00 10.5 6 Este 8 Sudeste 0 -- -- 77
2017-08-23 07:00:00 10.5 4 Sudeste 9 Este 0 -- -- 76
2017-08-23 06:00:00 12.2 6 Este 8 Este 0 -- -- 68
2017-08-23 05:00:00 14 4 Sudeste 7 Este 0 -- -- 67
2017-08-23 04:00:00 14.3 5 Este 9 Este 0 -- -- 62
2017-08-23 03:00:00 20.1 7 Este 15 Este 0 -- -- 55
2017-08-23 02:00:00 22.3 7 Este 18 Este 0 -- -- 50
2017-08-23 01:00:00 24 7 Nordeste 18 Norte 0 -- -- 45
2017-08-23 00:00:00 26.6 15 Norte 25 Norte 0 -- -- 31
2017-08-22 23:00:00 26.3 7 Oeste 15 Oeste 0 -- -- 29
2017-08-22 22:00:00 27.6 6 Oeste 13 Oeste 0 -- -- 28
2017-08-22 21:00:00 29.9 5 Noroeste 22 Oeste 0 -- -- 23
2017-08-22 20:00:00 33.7 14 Oeste 26 Oeste 0 -- -- 20
2017-08-22 19:00:00 35.1 11 Oeste 30 Oeste 0 -- -- 20
2017-08-22 18:00:00 35.2 17 Oeste 32 Oeste 0 -- -- 19
2017-08-22 17:00:00 35.2 15 Oeste 40 Oeste 0 -- -- 23
2017-08-22 16:00:00 34.8 10 Sudoeste 33 Oeste 0 -- -- 26
2017-08-22 15:00:00 33.7 16 Sudoeste 36 Sudoeste 0 -- -- 30
2017-08-22 14:00:00 34.1 16 Oeste 32 Oeste 0 -- -- 30
2017-08-22 13:00:00 33.1 11 Oeste 23 Noroeste 0 -- -- 32
2017-08-22 12:00:00 31.8 11 Sudoeste 21 Sudoeste 0 -- -- 31
2017-08-22 11:00:00 28.8 9 Noroeste 13 Noroeste 0 -- -- 39
2017-08-22 10:00:00 26.4 5 Oeste 10 Oeste 0 -- -- 44
2017-08-22 09:00:00 20.8 0 Calma 8 Este 0 -- -- 60
2017-08-22 08:00:00 14.6 4 Este 8 Este 0 -- -- 72
2017-08-22 07:00:00 14.8 3 Este 5 Este 0 -- -- 73
2017-08-22 06:00:00 15.9 3 Sudeste 5 Sudeste 0 -- -- 73
2017-08-22 05:00:00 16.1 4 Este 7 Sudeste 0 -- -- 65
2017-08-22 04:00:00 16.7 2 Este 5 Sur 0 -- -- 65
2017-08-22 03:00:00 19 3 Oeste 6 Sur 0 -- -- 60
2017-08-22 02:00:00 20.8 0 Calma 5 Noroeste 0 -- -- 52
2017-08-22 01:00:00 25 4 Oeste 14 Sudoeste 0 -- -- 45
2017-08-22 00:00:00 23 3 Sudeste 12 Sudoeste 0 -- -- 44